sensor_id;sensor_type;location;lat;lon;timestamp;temperature;humidity
19586;DHT22;9939;49.246;9.106;2023-10-08T00:00:45;17.80;99.90
19586;DHT22;9939;49.246;9.106;2023-10-08T00:03:13;17.80;99.90
19586;DHT22;9939;49.246;9.106;2023-10-08T00:05:41;17.80;99.90
19586;DHT22;9939;49.246;9.106;2023-10-08T00:08:08;17.70;99.90
19586;DHT22;9939;49.246;9.106;2023-10-08T00:10:36;17.80;99.90
19586;DHT22;9939;49.246;9.106;2023-10-08T00:13:04;17.80;99.90
19586;DHT22;9939;49.246;9.106;2023-10-08T00:15:34;17.80;99.90
19586;DHT22;9939;49.246;9.106;2023-10-08T00:18:03;17.80;99.90
19586;DHT22;9939;49.246;9.106;2023-10-08T00:20:32;17.80;99.90
19586;DHT22;9939;49.246;9.106;2023-10-08T00:23:09;17.80;99.90
19586;DHT22;9939;49.246;9.106;2023-10-08T00:25:36;17.80;99.90
19586;DHT22;9939;49.246;9.106;2023-10-08T00:28:07;17.80;99.90
19586;DHT22;9939;49.246;9.106;2023-10-08T00:30:40;17.70;99.90
19586;DHT22;9939;49.246;9.106;2023-10-08T00:33:08;17.70;99.90
19586;DHT22;9939;49.246;9.106;2023-10-08T00:35:39;17.80;99.90
19586;DHT22;9939;49.246;9.106;2023-10-08T00:38:08;17.90;99.90
19586;DHT22;9939;49.246;9.106;2023-10-08T00:40:41;17.80;99.90
19586;DHT22;9939;49.246;9.106;2023-10-08T00:46:02;17.50;99.90
19586;DHT22;9939;49.246;9.106;2023-10-08T00:48:44;17.50;99.90
19586;DHT22;9939;49.246;9.106;2023-10-08T00:51:11;17.60;99.90
19586;DHT22;9939;49.246;9.106;2023-10-08T00:54:05;17.70;99.90
19586;DHT22;9939;49.246;9.106;2023-10-08T00:56:37;17.60;99.90
19586;DHT22;9939;49.246;9.106;2023-10-08T00:59:20;17.60;99.90
19586;DHT22;9939;49.246;9.106;2023-10-08T01:01:50;17.50;99.90
19586;DHT22;9939;49.246;9.106;2023-10-08T01:04:26;17.40;99.90
19586;DHT22;9939;49.246;9.106;2023-10-08T01:06:54;17.40;99.90
19586;DHT22;9939;49.246;9.106;2023-10-08T01:09:25;17.30;99.90
19586;DHT22;9939;49.246;9.106;2023-10-08T01:14:35;17.20;99.90
19586;DHT22;9939;49.246;9.106;2023-10-08T01:17:02;17.20;99.90
19586;DHT22;9939;49.246;9.106;2023-10-08T01:19:32;17.10;99.90
19586;DHT22;9939;49.246;9.106;2023-10-08T01:22:05;17.10;99.90
19586;DHT22;9939;49.246;9.106;2023-10-08T01:24:43;17.20;99.90
19586;DHT22;9939;49.246;9.106;2023-10-08T01:27:10;17.10;99.90
19586;DHT22;9939;49.246;9.106;2023-10-08T01:29:38;17.10;99.90
19586;DHT22;9939;49.246;9.106;2023-10-08T01:32:06;17.00;99.90
19586;DHT22;9939;49.246;9.106;2023-10-08T01:34:37;17.00;99.90
19586;DHT22;9939;49.246;9.106;2023-10-08T01:37:05;16.90;99.90
19586;DHT22;9939;49.246;9.106;2023-10-08T01:39:38;16.80;99.90
19586;DHT22;9939;49.246;9.106;2023-10-08T01:42:09;16.80;99.90
19586;DHT22;9939;49.246;9.106;2023-10-08T01:44:45;16.90;99.90
19586;DHT22;9939;49.246;9.106;2023-10-08T01:47:13;16.80;99.90
19586;DHT22;9939;49.246;9.106;2023-10-08T01:49:41;16.80;99.90
19586;DHT22;9939;49.246;9.106;2023-10-08T01:52:09;16.70;99.90
19586;DHT22;9939;49.246;9.106;2023-10-08T01:54:44;16.50;99.90
19586;DHT22;9939;49.246;9.106;2023-10-08T01:57:11;16.50;99.90
19586;DHT22;9939;49.246;9.106;2023-10-08T01:59:39;16.60;99.90
19586;DHT22;9939;49.246;9.106;2023-10-08T02:02:06;16.60;99.90
19586;DHT22;9939;49.246;9.106;2023-10-08T02:04:33;16.70;99.90
19586;DHT22;9939;49.246;9.106;2023-10-08T02:07:02;16.70;99.90
19586;DHT22;9939;49.246;9.106;2023-10-08T02:09:30;16.60;99.90
19586;DHT22;9939;49.246;9.106;2023-10-08T02:11:57;16.60;99.90
19586;DHT22;9939;49.246;9.106;2023-10-08T02:14:25;16.60;99.90
19586;DHT22;9939;49.246;9.106;2023-10-08T02:16:51;16.50;99.90
19586;DHT22;9939;49.246;9.106;2023-10-08T02:19:23;16.30;99.90
19586;DHT22;9939;49.246;9.106;2023-10-08T02:21:56;16.50;99.90
19586;DHT22;9939;49.246;9.106;2023-10-08T02:24:24;16.40;99.90
19586;DHT22;9939;49.246;9.106;2023-10-08T02:26:51;16.40;99.90
19586;DHT22;9939;49.246;9.106;2023-10-08T02:29:18;16.50;99.90
19586;DHT22;9939;49.246;9.106;2023-10-08T02:31:45;16.30;99.90
19586;DHT22;9939;49.246;9.106;2023-10-08T02:34:12;16.00;99.90
19586;DHT22;9939;49.246;9.106;2023-10-08T02:36:39;16.10;99.90
19586;DHT22;9939;49.246;9.106;2023-10-08T02:39:08;16.10;99.90
19586;DHT22;9939;49.246;9.106;2023-10-08T02:41:43;16.00;99.90
19586;DHT22;9939;49.246;9.106;2023-10-08T02:44:13;16.10;99.90
19586;DHT22;9939;49.246;9.106;2023-10-08T02:46:40;16.00;99.90
19586;DHT22;9939;49.246;9.106;2023-10-08T02:49:08;16.00;99.90
19586;DHT22;9939;49.246;9.106;2023-10-08T02:51:41;16.00;99.90
19586;DHT22;9939;49.246;9.106;2023-10-08T02:54:08;15.90;99.90
19586;DHT22;9939;49.246;9.106;2023-10-08T02:56:46;16.00;99.90
19586;DHT22;9939;49.246;9.106;2023-10-08T02:59:13;15.90;99.90
19586;DHT22;9939;49.246;9.106;2023-10-08T03:01:41;16.00;99.90
19586;DHT22;9939;49.246;9.106;2023-10-08T03:04:09;15.90;99.90
19586;DHT22;9939;49.246;9.106;2023-10-08T03:06:45;15.90;99.90
19586;DHT22;9939;49.246;9.106;2023-10-08T03:09:22;16.00;99.90
19586;DHT22;9939;49.246;9.106;2023-10-08T03:11:53;16.00;99.90
19586;DHT22;9939;49.246;9.106;2023-10-08T03:14:20;15.90;99.90
19586;DHT22;9939;49.246;9.106;2023-10-08T03:16:54;15.90;99.90
19586;DHT22;9939;49.246;9.106;2023-10-08T03:19:30;15.80;99.90
19586;DHT22;9939;49.246;9.106;2023-10-08T03:21:56;15.80;99.90
19586;DHT22;9939;49.246;9.106;2023-10-08T03:24:24;15.70;99.90
19586;DHT22;9939;49.246;9.106;2023-10-08T03:26:57;15.70;99.90
19586;DHT22;9939;49.246;9.106;2023-10-08T03:29:36;15.70;99.90
19586;DHT22;9939;49.246;9.106;2023-10-08T03:32:09;15.60;99.90
19586;DHT22;9939;49.246;9.106;2023-10-08T03:34:47;15.50;99.90
19586;DHT22;9939;49.246;9.106;2023-10-08T03:37:17;15.60;99.90
19586;DHT22;9939;49.246;9.106;2023-10-08T03:39:48;15.70;99.90
19586;DHT22;9939;49.246;9.106;2023-10-08T03:42:24;15.60;99.90
19586;DHT22;9939;49.246;9.106;2023-10-08T03:44:52;15.70;99.90
19586;DHT22;9939;49.246;9.106;2023-10-08T03:47:19;15.70;99.90
19586;DHT22;9939;49.246;9.106;2023-10-08T03:49:49;15.80;99.90
19586;DHT22;9939;49.246;9.106;2023-10-08T03:52:17;15.70;99.90
19586;DHT22;9939;49.246;9.106;2023-10-08T03:54:50;15.70;99.90
19586;DHT22;9939;49.246;9.106;2023-10-08T03:57:31;15.60;99.90
19586;DHT22;9939;49.246;9.106;2023-10-08T04:00:11;15.30;99.90
19586;DHT22;9939;49.246;9.106;2023-10-08T04:02:55;15.20;99.90
19586;DHT22;9939;49.246;9.106;2023-10-08T04:05:22;15.10;99.90
19586;DHT22;9939;49.246;9.106;2023-10-08T04:07:54;15.10;99.90
19586;DHT22;9939;49.246;9.106;2023-10-08T04:10:32;15.00;99.90
19586;DHT22;9939;49.246;9.106;2023-10-08T04:13:05;15.20;99.90
19586;DHT22;9939;49.246;9.106;2023-10-08T04:15:42;15.10;99.90
19586;DHT22;9939;49.246;9.106;2023-10-08T04:18:10;15.10;99.90
19586;DHT22;9939;49.246;9.106;2023-10-08T04:20:37;15.10;99.90
19586;DHT22;9939;49.246;9.106;2023-10-08T04:23:04;15.20;99.90
19586;DHT22;9939;49.246;9.106;2023-10-08T04:25:32;15.20;99.90
19586;DHT22;9939;49.246;9.106;2023-10-08T04:27:59;15.20;99.90
19586;DHT22;9939;49.246;9.106;2023-10-08T04:30:26;15.20;99.90
19586;DHT22;9939;49.246;9.106;2023-10-08T04:33:03;15.00;99.90
19586;DHT22;9939;49.246;9.106;2023-10-08T04:35:34;15.00;99.90
19586;DHT22;9939;49.246;9.106;2023-10-08T04:38:04;14.80;99.90
19586;DHT22;9939;49.246;9.106;2023-10-08T04:40:31;14.90;99.90
19586;DHT22;9939;49.246;9.106;2023-10-08T04:43:07;15.10;99.90
19586;DHT22;9939;49.246;9.106;2023-10-08T04:45:37;15.20;99.90
19586;DHT22;9939;49.246;9.106;2023-10-08T04:48:04;15.10;99.90
19586;DHT22;9939;49.246;9.106;2023-10-08T04:50:38;15.10;99.90
19586;DHT22;9939;49.246;9.106;2023-10-08T04:53:05;14.80;99.90
19586;DHT22;9939;49.246;9.106;2023-10-08T04:55:35;14.70;99.90
19586;DHT22;9939;49.246;9.106;2023-10-08T04:58:01;14.40;99.90
19586;DHT22;9939;49.246;9.106;2023-10-08T05:00:38;14.30;99.90
19586;DHT22;9939;49.246;9.106;2023-10-08T05:03:12;14.10;99.90
19586;DHT22;9939;49.246;9.106;2023-10-08T05:05:42;13.90;99.90
19586;DHT22;9939;49.246;9.106;2023-10-08T05:08:28;13.90;99.90
19586;DHT22;9939;49.246;9.106;2023-10-08T05:10:59;13.80;99.90
19586;DHT22;9939;49.246;9.106;2023-10-08T05:13:42;13.60;99.90
19586;DHT22;9939;49.246;9.106;2023-10-08T05:16:27;13.80;99.90
19586;DHT22;9939;49.246;9.106;2023-10-08T05:19:10;13.60;99.90
19586;DHT22;9939;49.246;9.106;2023-10-08T05:21:56;13.60;99.90
19586;DHT22;9939;49.246;9.106;2023-10-08T05:24:44;13.40;99.90
19586;DHT22;9939;49.246;9.106;2023-10-08T05:27:34;13.40;99.90
19586;DHT22;9939;49.246;9.106;2023-10-08T05:30:10;13.40;99.90
19586;DHT22;9939;49.246;9.106;2023-10-08T05:32:52;13.40;99.90
19586;DHT22;9939;49.246;9.106;2023-10-08T05:35:39;13.40;99.90
19586;DHT22;9939;49.246;9.106;2023-10-08T05:38:10;13.30;99.90
19586;DHT22;9939;49.246;9.106;2023-10-08T05:40:43;13.30;99.90
19586;DHT22;9939;49.246;9.106;2023-10-08T05:43:36;13.30;99.90
19586;DHT22;9939;49.246;9.106;2023-10-08T05:46:10;13.20;99.90
19586;DHT22;9939;49.246;9.106;2023-10-08T05:48:50;13.20;99.90
19586;DHT22;9939;49.246;9.106;2023-10-08T05:51:38;13.20;99.90
19586;DHT22;9939;49.246;9.106;2023-10-08T05:57:06;13.30;99.90
19586;DHT22;9939;49.246;9.106;2023-10-08T05:59:41;13.30;99.90
19586;DHT22;9939;49.246;9.106;2023-10-08T06:02:25;13.40;99.90
19586;DHT22;9939;49.246;9.106;2023-10-08T06:04:56;13.50;99.90
19586;DHT22;9939;49.246;9.106;2023-10-08T06:07:45;13.50;99.90
19586;DHT22;9939;49.246;9.106;2023-10-08T06:10:14;13.70;99.90
19586;DHT22;9939;49.246;9.106;2023-10-08T06:15:29;13.80;99.90
19586;DHT22;9939;49.246;9.106;2023-10-08T06:20:55;13.90;99.90
19586;DHT22;9939;49.246;9.106;2023-10-08T06:23:22;14.80;99.90
19586;DHT22;9939;49.246;9.106;2023-10-08T06:25:52;13.80;99.90
19586;DHT22;9939;49.246;9.106;2023-10-08T06:28:37;14.00;99.90
19586;DHT22;9939;49.246;9.106;2023-10-08T06:31:05;14.20;99.90
19586;DHT22;9939;49.246;9.106;2023-10-08T06:33:38;14.40;99.90
19586;DHT22;9939;49.246;9.106;2023-10-08T06:36:05;14.60;99.90
19586;DHT22;9939;49.246;9.106;2023-10-08T06:38:40;14.60;99.90
19586;DHT22;9939;49.246;9.106;2023-10-08T06:41:11;14.70;99.90
19586;DHT22;9939;49.246;9.106;2023-10-08T06:43:55;14.90;99.90
19586;DHT22;9939;49.246;9.106;2023-10-08T06:46:42;15.20;99.90
19586;DHT22;9939;49.246;9.106;2023-10-08T06:49:09;15.50;99.90
19586;DHT22;9939;49.246;9.106;2023-10-08T06:51:41;15.60;99.90
19586;DHT22;9939;49.246;9.106;2023-10-08T06:54:10;15.80;99.90
19586;DHT22;9939;49.246;9.106;2023-10-08T06:56:43;16.10;99.90
19586;DHT22;9939;49.246;9.106;2023-10-08T06:59:13;16.20;99.90
19586;DHT22;9939;49.246;9.106;2023-10-08T07:01:40;16.40;99.90
19586;DHT22;9939;49.246;9.106;2023-10-08T07:04:08;16.60;99.90
19586;DHT22;9939;49.246;9.106;2023-10-08T07:06:39;16.90;99.90
19586;DHT22;9939;49.246;9.106;2023-10-08T07:09:06;16.90;99.90
19586;DHT22;9939;49.246;9.106;2023-10-08T07:11:40;16.80;99.90
19586;DHT22;9939;49.246;9.106;2023-10-08T07:14:11;16.70;99.90
19586;DHT22;9939;49.246;9.106;2023-10-08T07:16:38;16.90;99.90
19586;DHT22;9939;49.246;9.106;2023-10-08T07:19:08;17.00;99.90
19586;DHT22;9939;49.246;9.106;2023-10-08T07:21:42;17.00;99.90
19586;DHT22;9939;49.246;9.106;2023-10-08T07:24:13;17.00;99.90
19586;DHT22;9939;49.246;9.106;2023-10-08T07:26:44;17.30;99.90
19586;DHT22;9939;49.246;9.106;2023-10-08T07:29:14;17.40;99.90
19586;DHT22;9939;49.246;9.106;2023-10-08T07:31:44;17.80;99.90
19586;DHT22;9939;49.246;9.106;2023-10-08T07:34:19;17.70;99.90
19586;DHT22;9939;49.246;9.106;2023-10-08T07:36:53;18.20;99.90
19586;DHT22;9939;49.246;9.106;2023-10-08T07:39:21;18.70;99.90
19586;DHT22;9939;49.246;9.106;2023-10-08T07:41:51;19.10;99.90
19586;DHT22;9939;49.246;9.106;2023-10-08T07:44:20;19.10;99.90
19586;DHT22;9939;49.246;9.106;2023-10-08T07:46:51;18.90;99.90
19586;DHT22;9939;49.246;9.106;2023-10-08T07:49:18;18.90;99.90
19586;DHT22;9939;49.246;9.106;2023-10-08T07:51:45;18.90;99.90
19586;DHT22;9939;49.246;9.106;2023-10-08T07:54:18;19.30;99.90
19586;DHT22;9939;49.246;9.106;2023-10-08T07:56:46;19.80;99.90
19586;DHT22;9939;49.246;9.106;2023-10-08T07:59:14;20.00;99.90
19586;DHT22;9939;49.246;9.106;2023-10-08T08:01:43;20.90;99.90
19586;DHT22;9939;49.246;9.106;2023-10-08T08:04:10;21.40;99.90
19586;DHT22;9939;49.246;9.106;2023-10-08T08:06:38;22.20;99.90
19586;DHT22;9939;49.246;9.106;2023-10-08T08:09:05;22.10;99.90
19586;DHT22;9939;49.246;9.106;2023-10-08T08:11:44;21.10;99.90
19586;DHT22;9939;49.246;9.106;2023-10-08T08:14:13;21.20;99.90
19586;DHT22;9939;49.246;9.106;2023-10-08T08:16:43;21.60;99.90
19586;DHT22;9939;49.246;9.106;2023-10-08T08:19:14;21.30;99.90
19586;DHT22;9939;49.246;9.106;2023-10-08T08:21:45;21.20;99.90
19586;DHT22;9939;49.246;9.106;2023-10-08T08:24:12;21.10;99.90
19586;DHT22;9939;49.246;9.106;2023-10-08T08:26:39;21.20;99.90
19586;DHT22;9939;49.246;9.106;2023-10-08T08:29:11;20.80;99.90
19586;DHT22;9939;49.246;9.106;2023-10-08T08:31:42;21.70;99.90
19586;DHT22;9939;49.246;9.106;2023-10-08T08:34:12;22.90;99.90
19586;DHT22;9939;49.246;9.106;2023-10-08T08:36:46;23.50;99.90
19586;DHT22;9939;49.246;9.106;2023-10-08T08:39:16;23.40;99.90
19586;DHT22;9939;49.246;9.106;2023-10-08T08:42:03;23.00;99.90
19586;DHT22;9939;49.246;9.106;2023-10-08T08:44:31;23.10;99.90
19586;DHT22;9939;49.246;9.106;2023-10-08T08:46:59;23.50;99.90
19586;DHT22;9939;49.246;9.106;2023-10-08T08:49:34;23.60;99.90
19586;DHT22;9939;49.246;9.106;2023-10-08T08:52:01;23.60;99.90
19586;DHT22;9939;49.246;9.106;2023-10-08T08:54:28;23.90;99.90
19586;DHT22;9939;49.246;9.106;2023-10-08T08:56:59;23.30;99.90
19586;DHT22;9939;49.246;9.106;2023-10-08T08:59:28;23.00;99.90
19586;DHT22;9939;49.246;9.106;2023-10-08T09:01:57;22.50;99.90
19586;DHT22;9939;49.246;9.106;2023-10-08T09:04:28;22.40;99.90
19586;DHT22;9939;49.246;9.106;2023-10-08T09:06:56;22.10;99.90
19586;DHT22;9939;49.246;9.106;2023-10-08T09:09:22;22.10;99.90
19586;DHT22;9939;49.246;9.106;2023-10-08T09:11:49;22.10;99.90
19586;DHT22;9939;49.246;9.106;2023-10-08T09:14:19;21.80;99.90
19586;DHT22;9939;49.246;9.106;2023-10-08T09:16:47;22.00;99.90
19586;DHT22;9939;49.246;9.106;2023-10-08T09:19:13;22.40;99.90
19586;DHT22;9939;49.246;9.106;2023-10-08T09:22:06;22.10;99.90
19586;DHT22;9939;49.246;9.106;2023-10-08T09:24:32;22.20;99.90
19586;DHT22;9939;49.246;9.106;2023-10-08T09:27:00;22.30;99.90
19586;DHT22;9939;49.246;9.106;2023-10-08T09:29:28;22.20;99.90
19586;DHT22;9939;49.246;9.106;2023-10-08T09:31:56;22.10;99.90
19586;DHT22;9939;49.246;9.106;2023-10-08T09:34:27;22.10;99.90
19586;DHT22;9939;49.246;9.106;2023-10-08T09:36:58;22.40;99.90
19586;DHT22;9939;49.246;9.106;2023-10-08T09:39:29;22.30;99.90
19586;DHT22;9939;49.246;9.106;2023-10-08T09:42:01;22.20;99.90
19586;DHT22;9939;49.246;9.106;2023-10-08T09:44:33;22.30;99.90
19586;DHT22;9939;49.246;9.106;2023-10-08T09:47:06;22.10;99.90
19586;DHT22;9939;49.246;9.106;2023-10-08T09:52:03;21.90;99.90
19586;DHT22;9939;49.246;9.106;2023-10-08T09:54:37;21.90;99.90
19586;DHT22;9939;49.246;9.106;2023-10-08T09:57:10;21.60;99.90
19586;DHT22;9939;49.246;9.106;2023-10-08T09:59:37;21.70;99.90
19586;DHT22;9939;49.246;9.106;2023-10-08T10:02:07;21.90;99.90
19586;DHT22;9939;49.246;9.106;2023-10-08T10:04:41;22.30;99.90
19586;DHT22;9939;49.246;9.106;2023-10-08T10:07:10;22.00;99.90
19586;DHT22;9939;49.246;9.106;2023-10-08T10:09:40;21.80;99.90
19586;DHT22;9939;49.246;9.106;2023-10-08T10:12:09;21.80;99.90
19586;DHT22;9939;49.246;9.106;2023-10-08T10:14:46;21.60;99.90
19586;DHT22;9939;49.246;9.106;2023-10-08T10:20:01;21.70;99.90
19586;DHT22;9939;49.246;9.106;2023-10-08T10:22:29;23.30;99.90
19586;DHT22;9939;49.246;9.106;2023-10-08T10:24:56;25.10;99.90
19586;DHT22;9939;49.246;9.106;2023-10-08T10:27:23;25.70;99.90
19586;DHT22;9939;49.246;9.106;2023-10-08T10:29:50;27.20;99.90
19586;DHT22;9939;49.246;9.106;2023-10-08T10:32:18;26.40;99.90
19586;DHT22;9939;49.246;9.106;2023-10-08T10:34:45;26.20;99.90
19586;DHT22;9939;49.246;9.106;2023-10-08T10:37:18;25.80;99.90
19586;DHT22;9939;49.246;9.106;2023-10-08T10:39:56;25.20;99.90
19586;DHT22;9939;49.246;9.106;2023-10-08T10:42:26;24.10;99.90
19586;DHT22;9939;49.246;9.106;2023-10-08T10:44:54;24.20;99.90
19586;DHT22;9939;49.246;9.106;2023-10-08T10:47:23;24.10;99.90
19586;DHT22;9939;49.246;9.106;2023-10-08T10:49:53;23.80;99.90
19586;DHT22;9939;49.246;9.106;2023-10-08T10:52:32;24.20;99.90
19586;DHT22;9939;49.246;9.106;2023-10-08T10:55:03;24.40;99.90
19586;DHT22;9939;49.246;9.106;2023-10-08T10:57:43;24.00;99.90
19586;DHT22;9939;49.246;9.106;2023-10-08T11:00:11;24.00;99.90
19586;DHT22;9939;49.246;9.106;2023-10-08T11:02:56;24.20;99.90
19586;DHT22;9939;49.246;9.106;2023-10-08T11:05:26;24.90;99.90
19586;DHT22;9939;49.246;9.106;2023-10-08T11:07:56;25.00;99.90
19586;DHT22;9939;49.246;9.106;2023-10-08T11:10:31;26.10;99.90
19586;DHT22;9939;49.246;9.106;2023-10-08T11:12:58;26.60;99.90
19586;DHT22;9939;49.246;9.106;2023-10-08T11:15:28;25.40;99.90
19586;DHT22;9939;49.246;9.106;2023-10-08T11:18:07;25.80;99.90
19586;DHT22;9939;49.246;9.106;2023-10-08T11:20:35;26.10;99.90
19586;DHT22;9939;49.246;9.106;2023-10-08T11:23:30;27.60;99.90
19586;DHT22;9939;49.246;9.106;2023-10-08T11:26:00;28.10;99.90
19586;DHT22;9939;49.246;9.106;2023-10-08T11:28:32;28.90;99.90
19586;DHT22;9939;49.246;9.106;2023-10-08T11:31:04;28.70;99.90
19586;DHT22;9939;49.246;9.106;2023-10-08T11:33:35;29.10;99.90
19586;DHT22;9939;49.246;9.106;2023-10-08T11:36:03;29.30;99.90
19586;DHT22;9939;49.246;9.106;2023-10-08T11:38:42;30.60;99.90
19586;DHT22;9939;49.246;9.106;2023-10-08T11:41:10;31.20;99.80
19586;DHT22;9939;49.246;9.106;2023-10-08T11:43:40;31.40;99.90
19586;DHT22;9939;49.246;9.106;2023-10-08T11:46:06;31.20;99.40
19586;DHT22;9939;49.246;9.106;2023-10-08T11:48:33;31.90;97.90
19586;DHT22;9939;49.246;9.106;2023-10-08T11:51:05;30.20;98.20
19586;DHT22;9939;49.246;9.106;2023-10-08T11:53:32;29.20;99.50
19586;DHT22;9939;49.246;9.106;2023-10-08T11:56:03;29.10;99.90
19586;DHT22;9939;49.246;9.106;2023-10-08T11:58:35;29.60;99.90
19586;DHT22;9939;49.246;9.106;2023-10-08T12:01:04;29.40;99.20
19586;DHT22;9939;49.246;9.106;2023-10-08T12:03:31;28.80;99.90
19586;DHT22;9939;49.246;9.106;2023-10-08T12:05:58;29.40;99.90
19586;DHT22;9939;49.246;9.106;2023-10-08T12:08:26;30.20;98.90
19586;DHT22;9939;49.246;9.106;2023-10-08T12:10:54;30.30;99.00
19586;DHT22;9939;49.246;9.106;2023-10-08T12:13:22;30.70;98.00
19586;DHT22;9939;49.246;9.106;2023-10-08T12:15:55;30.00;98.70
19586;DHT22;9939;49.246;9.106;2023-10-08T12:18:39;30.80;98.00
19586;DHT22;9939;49.246;9.106;2023-10-08T12:21:07;31.00;96.70
19586;DHT22;9939;49.246;9.106;2023-10-08T12:23:37;31.40;96.90
19586;DHT22;9939;49.246;9.106;2023-10-08T12:26:04;31.80;96.20
19586;DHT22;9939;49.246;9.106;2023-10-08T12:28:34;32.30;95.40
19586;DHT22;9939;49.246;9.106;2023-10-08T12:31:02;32.20;95.30
19586;DHT22;9939;49.246;9.106;2023-10-08T12:33:30;32.60;94.40
19586;DHT22;9939;49.246;9.106;2023-10-08T12:35:58;32.20;94.60
19586;DHT22;9939;49.246;9.106;2023-10-08T12:38:32;32.80;94.30
19586;DHT22;9939;49.246;9.106;2023-10-08T12:40:59;33.20;93.70
19586;DHT22;9939;49.246;9.106;2023-10-08T12:43:34;33.90;92.70
19586;DHT22;9939;49.246;9.106;2023-10-08T12:46:05;35.20;91.90
19586;DHT22;9939;49.246;9.106;2023-10-08T12:48:37;35.80;91.10
19586;DHT22;9939;49.246;9.106;2023-10-08T12:51:05;35.90;89.60
19586;DHT22;9939;49.246;9.106;2023-10-08T12:53:33;35.00;90.40
19586;DHT22;9939;49.246;9.106;2023-10-08T12:56:06;36.60;89.00
19586;DHT22;9939;49.246;9.106;2023-10-08T12:58:34;36.40;86.50
19586;DHT22;9939;49.246;9.106;2023-10-08T13:01:21;36.50;85.20
19586;DHT22;9939;49.246;9.106;2023-10-08T13:03:48;35.20;86.30
19586;DHT22;9939;49.246;9.106;2023-10-08T13:06:15;34.30;90.00
19586;DHT22;9939;49.246;9.106;2023-10-08T13:08:49;34.90;89.70
19586;DHT22;9939;49.246;9.106;2023-10-08T13:11:22;36.80;85.60
19586;DHT22;9939;49.246;9.106;2023-10-08T13:13:49;36.10;84.40
19586;DHT22;9939;49.246;9.106;2023-10-08T13:16:16;36.50;84.80
19586;DHT22;9939;49.246;9.106;2023-10-08T13:18:44;37.70;83.40
19586;DHT22;9939;49.246;9.106;2023-10-08T13:21:10;37.00;82.00
19586;DHT22;9939;49.246;9.106;2023-10-08T13:23:37;36.00;84.00
19586;DHT22;9939;49.246;9.106;2023-10-08T13:26:04;34.00;84.30
19586;DHT22;9939;49.246;9.106;2023-10-08T13:28:31;34.90;86.00
19586;DHT22;9939;49.246;9.106;2023-10-08T13:31:00;35.80;84.20
19586;DHT22;9939;49.246;9.106;2023-10-08T13:33:33;35.40;84.10
19586;DHT22;9939;49.246;9.106;2023-10-08T13:36:00;35.00;85.80
19586;DHT22;9939;49.246;9.106;2023-10-08T13:38:43;35.10;86.10
19586;DHT22;9939;49.246;9.106;2023-10-08T13:41:13;35.30;84.50
19586;DHT22;9939;49.246;9.106;2023-10-08T13:43:49;36.10;84.40
19586;DHT22;9939;49.246;9.106;2023-10-08T13:46:18;35.70;84.20
19586;DHT22;9939;49.246;9.106;2023-10-08T13:48:46;34.90;85.40
19586;DHT22;9939;49.246;9.106;2023-10-08T13:51:16;35.90;82.90
19586;DHT22;9939;49.246;9.106;2023-10-08T13:53:48;36.10;83.80
19586;DHT22;9939;49.246;9.106;2023-10-08T13:56:19;34.30;85.90
19586;DHT22;9939;49.246;9.106;2023-10-08T13:58:51;32.80;88.30
19586;DHT22;9939;49.246;9.106;2023-10-08T14:01:22;32.10;90.20
19586;DHT22;9939;49.246;9.106;2023-10-08T14:03:49;31.20;91.60
19586;DHT22;9939;49.246;9.106;2023-10-08T14:06:20;31.60;91.50
19586;DHT22;9939;49.246;9.106;2023-10-08T14:08:48;32.40;90.70
19586;DHT22;9939;49.246;9.106;2023-10-08T14:11:18;33.60;89.10
19586;DHT22;9939;49.246;9.106;2023-10-08T14:13:45;34.50;86.90
19586;DHT22;9939;49.246;9.106;2023-10-08T14:16:14;34.90;86.80
19586;DHT22;9939;49.246;9.106;2023-10-08T14:18:44;36.00;85.40
19586;DHT22;9939;49.246;9.106;2023-10-08T14:21:17;36.10;83.70
19586;DHT22;9939;49.246;9.106;2023-10-08T14:23:45;35.40;85.90
19586;DHT22;9939;49.246;9.106;2023-10-08T14:26:17;35.30;85.60
19586;DHT22;9939;49.246;9.106;2023-10-08T14:28:48;34.10;86.70
19586;DHT22;9939;49.246;9.106;2023-10-08T14:31:20;34.20;87.40
19586;DHT22;9939;49.246;9.106;2023-10-08T14:33:49;33.70;88.20
19586;DHT22;9939;49.246;9.106;2023-10-08T14:36:36;33.30;88.20
19586;DHT22;9939;49.246;9.106;2023-10-08T14:39:21;32.70;90.00
19586;DHT22;9939;49.246;9.106;2023-10-08T14:42:07;31.50;91.10
19586;DHT22;9939;49.246;9.106;2023-10-08T14:44:52;31.10;91.50
19586;DHT22;9939;49.246;9.106;2023-10-08T14:47:19;30.80;92.00
19586;DHT22;9939;49.246;9.106;2023-10-08T14:49:46;29.80;92.80
19586;DHT22;9939;49.246;9.106;2023-10-08T14:52:13;28.70;94.10
19586;DHT22;9939;49.246;9.106;2023-10-08T14:54:40;28.00;95.50
19586;DHT22;9939;49.246;9.106;2023-10-08T14:57:07;27.50;96.70
19586;DHT22;9939;49.246;9.106;2023-10-08T14:59:34;27.30;98.20
19586;DHT22;9939;49.246;9.106;2023-10-08T15:02:01;27.20;98.80
19586;DHT22;9939;49.246;9.106;2023-10-08T15:04:27;26.80;99.30
19586;DHT22;9939;49.246;9.106;2023-10-08T15:06:59;26.30;99.90
19586;DHT22;9939;49.246;9.106;2023-10-08T15:09:25;26.00;99.90
19586;DHT22;9939;49.246;9.106;2023-10-08T15:11:52;25.80;99.90
19586;DHT22;9939;49.246;9.106;2023-10-08T15:14:20;25.50;99.90
19586;DHT22;9939;49.246;9.106;2023-10-08T15:16:48;25.10;99.90
19586;DHT22;9939;49.246;9.106;2023-10-08T15:19:19;25.10;99.90
19586;DHT22;9939;49.246;9.106;2023-10-08T15:21:46;25.00;99.90
19586;DHT22;9939;49.246;9.106;2023-10-08T15:24:17;25.00;99.90
19586;DHT22;9939;49.246;9.106;2023-10-08T15:26:44;25.20;99.90
19586;DHT22;9939;49.246;9.106;2023-10-08T15:29:11;25.20;99.90
19586;DHT22;9939;49.246;9.106;2023-10-08T15:31:40;25.30;99.90
19586;DHT22;9939;49.246;9.106;2023-10-08T15:34:07;25.40;99.90
19586;DHT22;9939;49.246;9.106;2023-10-08T15:36:43;25.30;99.90
19586;DHT22;9939;49.246;9.106;2023-10-08T15:39:10;25.50;99.90
19586;DHT22;9939;49.246;9.106;2023-10-08T15:41:37;25.60;99.90
19586;DHT22;9939;49.246;9.106;2023-10-08T15:44:04;25.60;99.90
19586;DHT22;9939;49.246;9.106;2023-10-08T15:46:32;25.70;99.90
19586;DHT22;9939;49.246;9.106;2023-10-08T15:49:03;25.70;99.90
19586;DHT22;9939;49.246;9.106;2023-10-08T15:51:30;25.50;99.90
19586;DHT22;9939;49.246;9.106;2023-10-08T15:54:00;25.10;99.90
19586;DHT22;9939;49.246;9.106;2023-10-08T15:56:27;24.90;99.90
19586;DHT22;9939;49.246;9.106;2023-10-08T15:58:54;24.90;99.90
19586;DHT22;9939;49.246;9.106;2023-10-08T16:01:24;24.60;99.90
19586;DHT22;9939;49.246;9.106;2023-10-08T16:03:54;24.40;99.90
19586;DHT22;9939;49.246;9.106;2023-10-08T16:06:21;24.10;99.90
19586;DHT22;9939;49.246;9.106;2023-10-08T16:08:47;24.00;99.90
19586;DHT22;9939;49.246;9.106;2023-10-08T16:11:14;23.80;99.90
19586;DHT22;9939;49.246;9.106;2023-10-08T16:13:41;23.50;99.90
19586;DHT22;9939;49.246;9.106;2023-10-08T16:16:09;23.30;99.90
19586;DHT22;9939;49.246;9.106;2023-10-08T16:18:36;23.20;99.90
19586;DHT22;9939;49.246;9.106;2023-10-08T16:21:04;22.90;99.90
19586;DHT22;9939;49.246;9.106;2023-10-08T16:23:37;22.70;99.90
19586;DHT22;9939;49.246;9.106;2023-10-08T16:26:04;22.40;99.90
19586;DHT22;9939;49.246;9.106;2023-10-08T16:28:32;22.00;99.90